• Join FlightAware (Why Join?)
  • Login
  • US Flag 
03:22PM EDT


 

Airport Tracker/Info


-or-


 

Live Flight TrackerFlight Track Log ✈ UPS1143 ✈ 28-Jun-2013 ✈ KBUF - KSDF

Flight Track Log - Related Links

Times and Time Zones

All times are in EDT time to prevent confusion due to time zone crossing. See the UPS1143 flight status page for this flight to view local times or setup timezone preferences in your user account.

Time Position Orientation Groundspeed Altitude Reporting Facility
EDT Latitude Longitude Course Direction KTS MPH feet Rate Location/Type
11:32PM 42.9330 -78.7390 42° Northeast 63 72  Level FlightAware
11:33PM 42.9450 -78.7240 42° Northeast 157 181 1,500 3,420 Climbing FlightAware
11:33PM 42.9610 -78.7050 41° Northeast 153 176 3,100 3,120 Climbing FlightAware
11:33PM 42.9700 -78.6920 47° Northeast 157 181 3,900 2,520 Climbing FlightAware
11:34PM 42.9710 -78.6820 82° East 165 190 4,300 1,620 Climbing FlightAware
11:34PM 42.9610 -78.6540 116° Southeast 221 254 5,000 1,920 Climbing FlightAware
11:35PM 42.9330 -78.6120 132° Southeast 271 312 6,400 3,060 Climbing FlightAware
11:35PM 42.9030 -78.5680 133° Southeast 287 330 8,600 3,840 Climbing FlightAware
11:35PM 42.8900 -78.5590 153° Southeast 290 334 9,300 4,080 Climbing FlightAware
11:36PM 42.8700 -78.5530 168° South 292 336 10,300 3,000 Climbing FlightAware
11:36PM 42.8380 -78.5640 194° South 319 367 11,300 2,640 Climbing FlightAware
11:37PM 42.7760 -78.6160 212° Southwest 356 410 13,400 2,580 Climbing FlightAware
11:38PM 42.7120 -78.6740 214° Southwest 391 450 15,200 2,280 Climbing FlightAware
11:38PM 42.6490 -78.7280 212° Southwest 416 479 16,700 2,700 Climbing FlightAware
11:39PM 42.5750 -78.7920 212° Southwest 420 483 19,100 2,820 Climbing FlightAware
11:40PM 42.4650 -78.8860 212° Southwest 436 502 21,900 2,400 Climbing FlightAware
11:41PM 42.3870 -78.9530 212° Southwest 450 518 23,500 2,100 Climbing FlightAware
11:42PM 42.3190 -79.0130 213° Southwest 460 529 24,900 2,100 Climbing FlightAware
11:42PM 42.2450 -79.1030 222° Southwest 464 534 26,500 2,040 Climbing FlightAware
11:43PM 42.1920 -79.1940 232° Southwest 467 537 27,800 2,100 Climbing FlightAware
11:44PM 42.1430 -79.3070 240° Southwest 463 533 29,500 2,160 Climbing FlightAware
11:44PM 42.1110 -79.4100 247° West 460 529 30,900 1,860 Climbing FlightAware
11:46PM 42.0640 -79.5990 252° West 457 526 33,000 1,620 Climbing FlightAware
11:46PM 42.0330 -79.7170 251° West 458 527 34,100 720 Climbing FlightAware
11:47PM 42.0030 -79.8300 250° West 458 527 34,100  Level FlightAware
11:48PM 41.9670 -79.9330 245° Southwest 460 529 34,100  Level FlightAware
11:48PM 41.9170 -80.0210 233° Southwest 458 527 34,100  Level FlightAware
11:49PM 41.8590 -80.1190 232° Southwest 455 524 34,100  Level FlightAware
11:50PM 41.7960 -80.2320 233° Southwest 460 529 34,100  Level FlightAware
11:50PM 41.7380 -80.3010 222° Southwest 462 532 34,100  Level FlightAware
11:51PM 41.6640 -80.3570 209° Southwest 461 531 34,100  Level FlightAware
11:52PM 41.5810 -80.4220 210° Southwest 456 525 34,100  Level FlightAware
11:53PM 41.5070 -80.4750 208° Southwest 456 525 34,100  Level FlightAware
11:53PM 41.4330 -80.5310 210° Southwest 454 522 34,100  Level FlightAware
11:54PM 41.3610 -80.6030 217° Southwest 447 514 34,100  Level FlightAware
11:55PM 41.3120 -80.6960 235° Southwest 442 509 34,100  Level FlightAware
11:55PM 41.2670 -80.7780 234° Southwest 439 505 34,100  Level FlightAware
11:56PM 41.2060 -80.8910 234° Southwest 437 503 34,100  Level FlightAware
11:57PM 41.1560 -80.9850 235° Southwest 438 504 34,100  Level FlightAware
11:57PM 41.1040 -81.0810 234° Southwest 438 504 34,100  Level FlightAware
11:58PM 41.0570 -81.1660 234° Southwest 437 503 34,100  Level FlightAware
11:59PM 41.0040 -81.2640 234° Southwest 437 503 34,100  Level FlightAware
11:59PM 40.9630 -81.3400 234° Southwest 439 505 34,100  Level FlightAware
12:00AM 40.9070 -81.4410 234° Southwest 443 510 34,100  Level FlightAware
12:01AM 40.8530 -81.5400 234° Southwest 447 514 34,100  Level FlightAware
12:02AM 40.8020 -81.6320 234° Southwest 448 516 34,100  Level FlightAware
12:02AM 40.7510 -81.7230 234° Southwest 448 516 34,100  Level FlightAware
12:03AM 40.7020 -81.8110 234° Southwest 448 516 34,100  Level FlightAware
12:04AM 40.6530 -81.9000 234° Southwest 448 516 34,100  Level FlightAware
12:04AM 40.5960 -82.0010 233° Southwest 450 518 34,100  Level FlightAware
12:05AM 40.5470 -82.0890 234° Southwest 450 518 34,100  Level FlightAware
12:06AM 40.4990 -82.1730 233° Southwest 449 517 34,100  Level FlightAware
12:06AM 40.4490 -82.2620 234° Southwest 447 514 34,100  Level FlightAware
12:07AM 40.3930 -82.3600 233° Southwest 446 513 34,100 -120 Level FlightAware
12:08AM 40.3370 -82.4600 234° Southwest 446 513 34,000  Descending FlightAware
12:09AM 40.2850 -82.5530 234° Southwest 447 514 34,100 60 Climbing FlightAware
12:09AM 40.2410 -82.6290 233° Southwest 448 516 34,100  Level FlightAware
12:10AM 40.1850 -82.7270 233° Southwest 449 517 34,100  Level FlightAware
12:11AM 40.1410 -82.8030 233° Southwest 449 517 34,100  Level FlightAware
12:12AM 40.0590 -82.9460 233° Southwest 447 514 34,100  Level FlightAware
12:12AM 40.0110 -83.0300 233° Southwest 447 514 34,100  Level FlightAware
12:13AM 39.9590 -83.1180 232° Southwest 449 517 34,100  Level FlightAware
12:14AM 39.9040 -83.2150 234° Southwest 447 514 34,100  Level FlightAware
12:14AM 39.8550 -83.2980 232° Southwest 444 511 34,100  Level FlightAware
12:15AM 39.8031 -83.3869 232° Southwest 447 514 34,100 -60 Level Indianapolis Center
12:16AM 39.7272 -83.5150 232° Southwest 451 519 34,000 -60 Descending Indianapolis Center
12:17AM 39.6489 -83.6475 233° Southwest 455 524 34,000  Level Indianapolis Center
12:18AM 39.5733 -83.7758 233° Southwest 443 510 34,000  Level Indianapolis Center
12:19AM 39.4981 -83.9028 232° Southwest 441 507 34,000 -1,500 Level Indianapolis Center
12:25AM 39.1040 -84.5600 232° Southwest 439 505 24,900 -2,040 Descending FlightAware
12:25AM 39.0350 -84.6710 231° Southwest 428 493 21,400 -2,280 Descending FlightAware
12:26AM 38.9970 -84.7340 232° Southwest 428 493 21,400  Level FlightAware
12:27AM 38.9480 -84.8150 232° Southwest 428 493 21,400  Level FlightAware
12:27AM 38.9100 -84.8780 232° Southwest 428 493 21,400  Level FlightAware
12:28AM 38.8600 -84.9590 232° Southwest 428 493 21,400  Level FlightAware
12:29AM 38.8230 -85.0210 233° Southwest 428 493 21,400 -2,400 Level FlightAware
12:34AM 38.3570 -85.3380 208° Southwest 280 322 7,600 -2,640 Descending FlightAware
12:35AM 38.3240 -85.3700 217° Southwest 279 321 6,800 -1,380 Descending FlightAware
12:35AM 38.2990 -85.3930 216° Southwest 276 318 6,400 -660 Descending FlightAware
12:35AM 38.2770 -85.4140 217° Southwest 275 316 6,300 -180 Descending FlightAware
12:36AM 38.2530 -85.4370 217° Southwest 275 316 6,300  Level FlightAware
12:36AM 38.2390 -85.4530 222° Southwest 271 312 6,300  Level FlightAware
12:36AM 38.2320 -85.4750 248° West 268 308 6,300  Level FlightAware
12:36AM 38.2260 -85.5010 254° West 268 308 6,300  Level FlightAware
12:37AM 38.2180 -85.5420 256° West 251 289 6,300  Level FlightAware
12:37AM 38.2100 -85.5790 255° West 230 265 6,300  Level FlightAware
12:38AM 38.1970 -85.6130 244° Southwest 236 272 6,300  Level FlightAware
12:38AM 38.1900 -85.6170 204° Southwest 243 280 6,300 -840 Level FlightAware
12:38AM 38.1570 -85.6150 177° South 252 290 5,800 -1,140 Descending FlightAware
12:39AM 38.1230 -85.6020 163° South 253 291 5,200 -1,440 Descending FlightAware
12:39AM 38.1050 -85.5950 163° South 253 291 4,700 -1,200 Descending FlightAware
12:40AM 38.0780 -85.5840 162° South 250 288 4,400 -480 Descending FlightAware
12:40AM 38.0470 -85.5750 167° South 247 284 4,300 -120 Descending FlightAware
12:41AM 38.0030 -85.5610 166° South 247 284 4,300  Level FlightAware
12:41AM 37.9710 -85.5520 167° South 248 285 4,300 -240 Level FlightAware
12:42AM 37.9333 -85.5333 167° South 248 285 4,100 -180 Descending Louisville TRACON
12:48AM 37.9740 -85.6580 167° South 185 213 3,300 -180 Descending FlightAware
12:48AM 37.9880 -85.6610 350° North 184 212 3,300  Level FlightAware
12:49AM 38.0100 -85.6690 344° North 184 212 3,300  Level FlightAware
12:49AM 38.0310 -85.6770 343° North 167 192 3,300 -360 Level FlightAware
12:49AM 38.0500 -85.6850 342° North 167 192 3,000 -780 Descending FlightAware
12:50AM 38.0720 -85.6920 346° North 156 180 2,600 -840 Descending FlightAware
12:50AM 38.0820 -85.6950 347° North 151 174 2,400 -720 Descending FlightAware
12:51AM 38.0990 -85.7010 344° North 115 132 2,100 -660 Descending FlightAware
12:51AM 38.1030 -85.7020 349° North 112 129 2,000 -660 Descending FlightAware
12:51AM 38.1190 -85.7080 344° North 111 128 1,700 -660 Descending FlightAware
12:52AM 38.1270 -85.7110 344° North 111 128 1,500 -600 Descending FlightAware
12:52AM 38.1390 -85.7150 345° North 114 131 1,300 -600 Descending FlightAware